createdAt,value
2018-07-10T00:04:35.159Z,5.16
2018-07-10T00:10:30.167Z,4.86
2018-07-10T00:16:25.202Z,4.82
2018-07-10T00:22:20.203Z,5.29
2018-07-10T00:28:15.189Z,4.72
2018-07-10T00:34:10.205Z,5.12
2018-07-10T00:40:05.201Z,4.66
2018-07-10T00:46:00.224Z,4.65
2018-07-10T00:51:55.253Z,5.4
2018-07-10T00:57:50.224Z,4.89
2018-07-10T01:03:45.202Z,5.64
2018-07-10T01:09:40.258Z,5.1
2018-07-10T01:15:35.211Z,6.96
2018-07-10T01:21:30.219Z,5.7
2018-07-10T01:27:25.215Z,4.87
2018-07-10T01:33:20.237Z,5.35
2018-07-10T01:39:15.255Z,5.89
2018-07-10T01:45:10.266Z,5.72
2018-07-10T01:51:05.237Z,5.29
2018-07-10T01:57:00.266Z,6.42
2018-07-10T02:02:55.296Z,5.81
2018-07-10T02:08:50.338Z,6.74
2018-07-10T02:14:45.301Z,5.3
2018-07-10T02:20:40.258Z,5.63
2018-07-10T02:26:35.302Z,5.03
2018-07-10T02:32:30.306Z,4.94
2018-07-10T02:38:25.292Z,5.53
2018-07-10T02:44:20.299Z,5.25
2018-07-10T02:50:15.343Z,5.11
2018-07-10T02:56:10.295Z,4.93
2018-07-10T03:02:05.376Z,5.61
2018-07-10T03:08:00.335Z,5.41
2018-07-10T03:13:55.344Z,5.44
2018-07-10T03:19:50.348Z,10.26
2018-07-10T03:25:45.372Z,6.02
2018-07-10T03:31:40.333Z,6.56
2018-07-10T03:37:35.326Z,5.55
2018-07-10T03:43:30.441Z,5.86
2018-07-10T03:49:25.393Z,8.67
2018-07-10T03:55:20.338Z,6.28
2018-07-10T04:01:15.324Z,6.09
2018-07-10T04:07:10.367Z,5.68
2018-07-10T04:13:05.353Z,6.83
2018-07-10T04:19:00.378Z,5.12
2018-07-10T04:24:55.346Z,5.78
2018-07-10T04:30:50.361Z,6.02
2018-07-10T04:36:45.365Z,6.44
2018-07-10T04:42:40.400Z,6.12
2018-07-10T04:48:35.438Z,5.42
2018-07-10T04:54:30.397Z,5.55
2018-07-10T05:00:25.563Z,6.51
2018-07-10T05:06:20.388Z,5.94
2018-07-10T05:12:15.396Z,6.7
2018-07-10T05:18:10.456Z,7.29
2018-07-10T05:24:05.441Z,6.36
2018-07-10T05:30:00.437Z,6.05
2018-07-10T05:35:55.441Z,7.16
2018-07-10T05:41:50.427Z,7.13
2018-07-10T05:47:45.435Z,6.43
2018-07-10T05:53:40.423Z,9.6
2018-07-10T05:59:35.467Z,6.9
2018-07-10T06:05:30.435Z,9.16
2018-07-10T06:11:25.467Z,7.16
2018-07-10T06:17:20.565Z,7.82
2018-07-10T06:23:15.552Z,10.55
2018-07-10T06:29:10.452Z,8.21
2018-07-10T06:35:05.455Z,7.7
2018-07-10T06:41:00.444Z,10.54
2018-07-10T06:46:55.497Z,7.99
2018-07-10T06:52:50.785Z,13.02
2018-07-10T06:58:45.482Z,8.29
2018-07-10T07:04:40.555Z,8.77
2018-07-10T07:10:35.491Z,15.06
2018-07-10T07:16:30.489Z,12.59
2018-07-10T07:22:25.500Z,10.77
2018-07-10T07:28:20.495Z,13.08
2018-07-10T07:34:15.541Z,19.04
2018-07-10T07:40:10.526Z,14.05
2018-07-10T07:46:05.508Z,13.51
2018-07-10T07:52:00.527Z,12.83
2018-07-10T07:57:55.526Z,11.31
2018-07-10T08:03:50.543Z,10.12
2018-07-10T08:09:45.527Z,10.26
2018-07-10T08:15:40.602Z,10
2018-07-10T08:21:35.542Z,9.69
2018-07-10T08:27:30.571Z,8.03
2018-07-10T08:33:25.644Z,7.64
2018-07-10T08:39:20.549Z,6.69
2018-07-10T08:45:15.553Z,8.33
2018-07-10T08:51:10.560Z,5.2
2018-07-10T08:57:05.648Z,3.75
2018-07-10T09:03:00.620Z,8.92
2018-07-10T09:08:55.635Z,3.93
2018-07-10T09:14:50.590Z,5.78
2018-07-10T09:20:45.619Z,3.12
2018-07-10T09:26:40.595Z,5.75
2018-07-10T09:32:35.599Z,23.43
2018-07-10T09:38:30.593Z,4.08
2018-07-10T09:44:25.608Z,6.93
2018-07-10T09:50:20.744Z,3.59
2018-07-10T09:56:15.624Z,3.09
2018-07-10T10:02:10.638Z,3.34
2018-07-10T10:08:05.637Z,3.36
2018-07-10T10:14:00.650Z,2.81
2018-07-10T10:19:55.698Z,3.23
2018-07-10T10:25:50.842Z,3.18
2018-07-10T10:31:45.633Z,2.97
2018-07-10T10:37:40.671Z,3.11
2018-07-10T10:43:35.695Z,3.33
2018-07-10T10:49:30.697Z,3.59
2018-07-10T10:55:25.723Z,5.19
2018-07-10T11:01:20.692Z,2.82
2018-07-10T11:07:15.686Z,5.65
2018-07-10T11:13:10.779Z,3.38
2018-07-10T11:19:05.788Z,9.28
2018-07-10T11:25:00.683Z,4.87
2018-07-10T11:30:55.693Z,8.99
2018-07-10T11:36:50.727Z,2.59
2018-07-10T11:42:45.709Z,2.12
2018-07-10T11:48:40.703Z,2.34
2018-07-10T11:54:35.782Z,2.66
2018-07-10T12:00:30.744Z,2.13
2018-07-10T12:06:25.711Z,2.37
2018-07-10T12:12:20.728Z,3.25
2018-07-10T12:18:15.762Z,4.59
2018-07-10T12:24:10.766Z,2.21
2018-07-10T12:30:05.807Z,4.15
2018-07-10T12:36:00.777Z,2.33
2018-07-10T12:41:55.800Z,3.04
2018-07-10T12:47:50.772Z,3.02
2018-07-10T12:53:45.771Z,6.32
2018-07-10T12:59:40.793Z,3.23
2018-07-10T13:05:35.869Z,3.7
2018-07-10T13:11:30.762Z,3.91
2018-07-10T13:17:25.812Z,3.91
2018-07-10T13:23:20.813Z,3.11
2018-07-10T13:29:15.866Z,3.74
2018-07-10T13:35:10.884Z,3.92
2018-07-10T13:41:05.825Z,4.12
2018-07-10T13:47:00.825Z,4.86
2018-07-10T13:52:55.834Z,3.51
2018-07-10T13:58:50.835Z,4.74
2018-07-10T14:04:45.834Z,6.91
2018-07-10T14:10:40.888Z,5.58
2018-07-10T14:16:35.843Z,4.6
2018-07-10T14:22:30.902Z,4.37
2018-07-10T14:28:25.896Z,4.47
2018-07-10T14:34:20.973Z,2.15
2018-07-10T14:40:15.897Z,2.63
2018-07-10T14:46:10.914Z,2.54
2018-07-10T14:52:05.921Z,3.07
2018-07-10T14:58:00.942Z,4.77
2018-07-10T15:03:55.911Z,3.09
2018-07-10T15:09:51.005Z,5.41
2018-07-10T15:15:45.918Z,2.32
2018-07-10T15:21:40.931Z,3.03
2018-07-10T15:27:35.927Z,2.21
2018-07-10T15:33:31.001Z,2.11
2018-07-10T15:39:25.927Z,2.33
2018-07-10T15:45:20.956Z,2.41
2018-07-10T15:51:15.946Z,2.25
2018-07-10T15:57:10.959Z,2.18
2018-07-10T16:03:05.973Z,5.1
2018-07-10T16:09:00.970Z,1.98
2018-07-10T16:14:56.013Z,2.94
2018-07-10T16:20:50.967Z,2.89
2018-07-10T16:26:46.001Z,2.97
2018-07-10T16:32:41.009Z,3.74
2018-07-10T16:38:36.013Z,3.21
2018-07-10T16:44:31.074Z,4.26
2018-07-10T16:50:26.116Z,3.53
2018-07-10T16:56:20.999Z,3.59
2018-07-10T17:02:16.003Z,8.63
2018-07-10T17:08:11.048Z,5.02
2018-07-10T17:14:06.016Z,3.38
2018-07-10T17:20:01.018Z,4.58
2018-07-10T17:25:56.018Z,3.4
2018-07-10T17:31:51.061Z,3.56
2018-07-10T17:37:46.071Z,4.81
2018-07-10T17:43:41.092Z,3.42
2018-07-10T17:49:36.061Z,3.28
2018-07-10T17:55:31.043Z,4.19
2018-07-10T18:01:26.052Z,3.62
2018-07-10T18:07:21.197Z,3.62
2018-07-10T18:13:16.061Z,4.03
2018-07-10T18:19:11.151Z,3.96
2018-07-10T18:25:06.145Z,4.87
2018-07-10T18:31:01.150Z,4.14
2018-07-10T18:36:56.134Z,4.13
2018-07-10T18:42:51.106Z,3.63
2018-07-10T18:48:46.146Z,4.06
2018-07-10T18:54:41.127Z,4.25
2018-07-10T19:00:36.292Z,4.1
2018-07-10T19:06:31.130Z,4.47
2018-07-10T19:12:26.168Z,3.95
2018-07-10T19:18:21.170Z,4.65
2018-07-10T19:24:16.342Z,5.14
2018-07-10T19:30:11.291Z,4.44
2018-07-10T19:36:06.155Z,4.17
2018-07-10T19:42:01.167Z,6.94
2018-07-10T19:47:56.134Z,3.99
2018-07-10T19:53:51.214Z,5.56
2018-07-10T19:59:46.228Z,4.33
2018-07-10T20:05:41.195Z,5.27
2018-07-10T20:11:36.159Z,4.93
2018-07-10T20:17:31.384Z,5
2018-07-10T20:23:26.305Z,6.98
2018-07-10T20:29:21.196Z,5.63
2018-07-10T20:35:16.193Z,6.6
2018-07-10T20:41:11.191Z,5.63
2018-07-10T20:47:06.265Z,6.39
2018-07-10T20:53:01.267Z,6.21
2018-07-10T20:58:56.301Z,5.64
2018-07-10T21:04:51.223Z,5.4
2018-07-10T21:10:46.210Z,5.82
2018-07-10T21:16:41.315Z,4.88
2018-07-10T21:22:36.288Z,6.83
2018-07-10T21:28:31.269Z,5.73
2018-07-10T21:34:26.239Z,5.71
2018-07-10T21:40:21.234Z,11.17
2018-07-10T21:46:16.240Z,6.56
2018-07-10T21:52:11.240Z,6.66
2018-07-10T21:58:06.267Z,6.23
2018-07-10T22:04:01.297Z,6.14
2018-07-10T22:09:56.272Z,7.34
2018-07-10T22:15:51.285Z,8.89
2018-07-10T22:21:46.289Z,7.04
2018-07-10T22:27:41.384Z,6.37
2018-07-10T22:33:36.290Z,6.86
2018-07-10T22:39:31.258Z,6.78
2018-07-10T22:45:26.360Z,7.52
2018-07-10T22:51:21.354Z,7.92
2018-07-10T22:57:16.293Z,8.28
2018-07-10T23:03:11.282Z,7.56
2018-07-10T23:09:06.309Z,9.58
2018-07-10T23:15:01.344Z,6.88
2018-07-10T23:20:56.306Z,8.28
2018-07-10T23:26:51.341Z,8.17
2018-07-10T23:32:46.350Z,7.63
2018-07-10T23:38:41.484Z,7.46
2018-07-10T23:44:36.335Z,10.56
2018-07-10T23:50:31.377Z,7.23
2018-07-10T23:56:26.341Z,7.08
